createdAt,value
2023-06-28T00:00:50.163Z,98386.59
2023-06-28T00:03:17.117Z,98400.63
2023-06-28T00:05:44.036Z,98418.25
2023-06-28T00:08:11.001Z,98383.34
2023-06-28T00:10:37.998Z,98414.56
2023-06-28T00:13:04.875Z,98397.00
2023-06-28T00:15:32.423Z,98414.97
2023-06-28T00:17:59.418Z,98430.63
2023-06-28T00:20:26.476Z,98400.13
2023-06-28T00:22:53.414Z,98427.31
2023-06-28T00:25:20.402Z,98405.84
2023-06-28T00:28:06.247Z,98402.78
2023-06-28T00:30:54.042Z,98409.69
2023-06-28T00:33:39.577Z,98399.38
2023-06-28T00:36:25.480Z,98414.09
2023-06-28T00:39:10.956Z,98404.53
2023-06-28T00:41:38.007Z,98390.81
2023-06-28T00:44:05.080Z,98385.13
2023-06-28T00:46:32.091Z,98370.06
2023-06-28T00:49:00.156Z,98373.75
2023-06-28T00:51:29.909Z,98401.16
2023-06-28T00:53:58.310Z,98392.41
2023-06-28T00:56:25.965Z,98364.97
2023-06-28T00:58:53.685Z,98336.53
2023-06-28T01:01:21.924Z,98405.53
2023-06-28T01:04:07.641Z,98379.81
2023-06-28T01:06:39.430Z,98386.50
2023-06-28T01:09:08.012Z,98397.41
2023-06-28T01:11:36.023Z,98396.78
2023-06-28T01:14:22.431Z,98399.16
2023-06-28T01:16:50.727Z,98403.44
2023-06-28T01:19:18.667Z,98409.25
2023-06-28T01:21:49.795Z,98385.09
2023-06-28T01:24:16.947Z,98392.66
2023-06-28T01:26:44.701Z,98375.44
2023-06-28T01:29:12.171Z,98352.44
2023-06-28T01:31:39.440Z,98392.56
2023-06-28T01:34:06.594Z,98373.00
2023-06-28T01:36:34.667Z,98402.09
2023-06-28T01:39:02.087Z,98399.31
2023-06-28T01:41:29.445Z,98387.78
2023-06-28T01:43:56.515Z,98390.13
2023-06-28T01:46:25.331Z,98417.81
2023-06-28T01:48:52.485Z,98404.84
2023-06-28T01:51:20.322Z,98404.25
2023-06-28T01:53:49.330Z,98405.59
2023-06-28T01:56:16.278Z,98406.28
2023-06-28T01:58:43.316Z,98398.00
2023-06-28T02:01:10.449Z,98400.47
2023-06-28T02:03:37.521Z,98417.59
2023-06-28T02:06:05.740Z,98433.34
2023-06-28T02:08:32.736Z,98410.31
2023-06-28T02:10:59.612Z,98394.13
2023-06-28T02:13:26.614Z,98415.09
2023-06-28T02:15:53.499Z,98400.53
2023-06-28T02:18:20.437Z,98388.34
2023-06-28T02:20:47.354Z,98504.06
2023-06-28T02:23:14.247Z,98420.31
2023-06-28T02:25:41.079Z,98399.22
2023-06-28T02:28:10.041Z,98413.88
2023-06-28T02:30:55.346Z,98416.16
2023-06-28T02:33:24.821Z,98416.44
2023-06-28T02:35:51.694Z,98431.75
2023-06-28T02:38:18.581Z,98433.25
2023-06-28T02:40:45.579Z,98416.81
2023-06-28T02:43:12.557Z,98438.63
2023-06-28T02:45:39.503Z,98435.19
2023-06-28T02:48:24.975Z,98402.38
2023-06-28T02:50:52.204Z,98424.88
2023-06-28T02:53:37.613Z,98433.78
2023-06-28T02:56:04.975Z,98427.75
2023-06-28T02:58:58.038Z,98448.56
2023-06-28T03:01:25.461Z,98443.19
2023-06-28T03:04:11.657Z,98418.16
2023-06-28T03:06:38.762Z,98445.91
2023-06-28T03:09:05.665Z,98457.13
2023-06-28T03:11:32.687Z,98461.38
2023-06-28T03:13:59.635Z,98449.84
2023-06-28T03:16:26.674Z,98435.84
2023-06-28T03:18:53.896Z,98449.28
2023-06-28T03:21:39.233Z,98429.97
2023-06-28T03:24:25.772Z,98435.50
2023-06-28T03:26:53.952Z,98471.31
2023-06-28T03:29:21.628Z,98424.03
2023-06-28T03:31:49.607Z,98454.13
2023-06-28T03:34:16.801Z,98444.22
2023-06-28T03:37:05.324Z,98449.88
2023-06-28T03:39:33.559Z,98443.38
2023-06-28T03:42:00.496Z,98458.25
2023-06-28T03:44:45.806Z,98451.69
2023-06-28T03:47:14.682Z,98460.22
2023-06-28T03:49:41.835Z,98477.72
2023-06-28T03:52:27.608Z,98442.59
2023-06-28T03:54:54.657Z,98436.94
2023-06-28T03:57:41.276Z,98450.47
2023-06-28T04:00:08.886Z,98471.44
2023-06-28T04:02:41.094Z,98455.16
2023-06-28T04:05:26.869Z,98450.72
2023-06-28T04:07:53.921Z,98460.06
2023-06-28T04:10:20.940Z,98464.22
2023-06-28T04:12:47.997Z,98443.66
2023-06-28T04:15:14.980Z,98480.94
2023-06-28T04:17:42.000Z,98457.25
2023-06-28T04:20:09.169Z,98477.88
2023-06-28T04:22:36.278Z,98471.88
2023-06-28T04:25:03.446Z,98472.03
2023-06-28T04:27:30.484Z,98424.22
2023-06-28T04:29:57.595Z,98446.19
2023-06-28T04:32:28.178Z,98452.84
2023-06-28T04:34:56.209Z,98454.63
2023-06-28T04:37:24.625Z,98459.88
2023-06-28T04:39:51.531Z,98470.06
2023-06-28T04:42:18.817Z,98450.81
2023-06-28T04:44:46.074Z,98455.44
2023-06-28T04:47:13.062Z,98468.53
2023-06-28T04:49:40.154Z,98467.97
2023-06-28T04:52:07.377Z,98474.06
2023-06-28T04:54:34.284Z,98470.84
2023-06-28T04:57:19.859Z,98481.00
2023-06-28T05:00:06.046Z,98464.00
2023-06-28T05:02:51.810Z,98463.03
2023-06-28T05:05:18.904Z,98472.75
2023-06-28T05:07:45.935Z,98467.41
2023-06-28T05:10:31.341Z,98468.16
2023-06-28T05:12:58.420Z,98469.44
2023-06-28T05:15:43.855Z,98473.44
2023-06-28T05:18:11.165Z,98452.31
2023-06-28T05:20:56.574Z,98482.63
2023-06-28T05:23:26.394Z,98451.16
2023-06-28T05:25:53.444Z,98468.00
2023-06-28T05:28:20.939Z,98477.19
2023-06-28T05:30:48.447Z,98476.91
2023-06-28T05:33:15.613Z,98466.31
2023-06-28T05:36:01.284Z,98461.13
2023-06-28T05:38:28.411Z,98459.78
2023-06-28T05:41:14.255Z,98453.81
2023-06-28T05:43:44.212Z,98459.34
2023-06-28T05:46:11.332Z,98464.06
2023-06-28T05:48:56.701Z,98466.22
2023-06-28T05:51:23.720Z,98469.41
2023-06-28T05:54:08.828Z,98469.25
2023-06-28T05:56:35.810Z,98462.88
2023-06-28T05:59:02.698Z,98474.41
2023-06-28T06:01:30.033Z,98461.69
2023-06-28T06:03:57.041Z,98457.19
2023-06-28T06:06:24.123Z,98446.53
2023-06-28T06:08:51.209Z,98472.88
2023-06-28T06:11:36.453Z,98472.00
2023-06-28T06:14:22.126Z,98475.94
2023-06-28T06:16:49.208Z,98466.72
2023-06-28T06:19:16.446Z,98476.91
2023-06-28T06:22:02.225Z,98437.72
2023-06-28T06:24:29.197Z,98475.13
2023-06-28T06:26:56.157Z,98466.44
2023-06-28T06:29:41.830Z,98467.72
2023-06-28T06:32:30.169Z,98465.09
2023-06-28T06:34:57.307Z,98466.72
2023-06-28T06:37:24.428Z,98457.69
2023-06-28T06:39:51.516Z,98436.56
2023-06-28T06:42:37.503Z,98462.94
2023-06-28T06:45:05.042Z,98473.91
2023-06-28T06:47:50.713Z,98468.84
2023-06-28T06:50:17.883Z,98476.56
2023-06-28T06:52:45.297Z,98488.72
2023-06-28T06:55:12.364Z,98482.38
2023-06-28T06:57:39.262Z,98470.69
2023-06-28T07:00:06.845Z,98497.81
2023-06-28T07:02:33.892Z,98452.41
2023-06-28T07:05:00.989Z,98485.31
2023-06-28T07:07:46.441Z,98499.84
2023-06-28T07:10:31.903Z,98499.28
2023-06-28T07:13:05.039Z,98494.78
2023-06-28T07:15:32.070Z,98502.38
2023-06-28T07:17:59.560Z,98524.09
2023-06-28T07:20:44.891Z,98527.97
2023-06-28T07:23:11.937Z,98553.94
2023-06-28T07:25:38.912Z,98513.94
2023-06-28T07:28:06.061Z,98521.75
2023-06-28T07:30:52.447Z,98510.03
2023-06-28T07:33:19.439Z,98544.88
2023-06-28T07:35:46.335Z,98528.44
2023-06-28T07:38:13.433Z,98521.59
2023-06-28T07:40:59.472Z,98504.34
2023-06-28T07:43:26.535Z,98530.19
2023-06-28T07:45:54.111Z,98501.78
2023-06-28T07:48:21.489Z,98531.91
2023-06-28T07:51:07.270Z,98537.59
2023-06-28T07:53:34.523Z,98544.44
2023-06-28T07:56:01.469Z,98547.94
2023-06-28T07:58:28.505Z,98541.72
2023-06-28T08:00:55.541Z,98539.84
2023-06-28T08:03:22.641Z,98553.84
2023-06-28T08:06:08.325Z,98550.72
2023-06-28T08:08:35.357Z,98550.44
2023-06-28T08:11:20.883Z,98534.75
2023-06-28T08:13:47.942Z,98528.34
2023-06-28T08:16:51.872Z,98547.44
2023-06-28T08:19:21.232Z,98516.56
2023-06-28T08:21:51.139Z,98553.06
2023-06-28T08:24:22.845Z,98552.50
2023-06-28T08:26:49.832Z,98555.16
2023-06-28T08:29:35.635Z,98545.28
2023-06-28T08:32:02.699Z,98547.63
2023-06-28T08:34:29.674Z,98546.06
2023-06-28T08:36:56.743Z,98530.03
2023-06-28T08:39:23.680Z,98535.41
2023-06-28T08:42:09.401Z,98554.84
2023-06-28T08:44:38.599Z,98539.63
2023-06-28T08:47:09.949Z,98542.41
2023-06-28T08:49:40.208Z,98548.22
2023-06-28T08:52:08.678Z,98550.31
2023-06-28T08:54:37.087Z,98571.50
2023-06-28T08:57:12.515Z,98532.66
2023-06-28T09:00:00.053Z,98557.41
2023-06-28T09:02:46.250Z,98572.16
2023-06-28T09:05:31.985Z,98562.53
2023-06-28T09:08:00.542Z,98556.31
2023-06-28T09:10:27.868Z,98572.91
2023-06-28T09:13:32.513Z,98578.22
2023-06-28T09:16:01.341Z,98565.97
2023-06-28T09:18:30.903Z,98563.94
2023-06-28T09:20:58.276Z,98567.88
2023-06-28T09:23:30.191Z,98560.19
2023-06-28T09:26:16.076Z,98564.16
2023-06-28T09:28:43.138Z,98544.25
2023-06-28T09:31:10.099Z,98573.91
2023-06-28T09:33:37.178Z,98577.31
2023-06-28T09:36:04.516Z,98576.44
2023-06-28T09:38:31.477Z,98569.63
2023-06-28T09:41:03.358Z,98588.69
2023-06-28T09:43:36.067Z,98578.16
2023-06-28T09:46:16.279Z,98601.41
2023-06-28T09:48:45.165Z,98593.31
2023-06-28T09:51:30.731Z,98572.81
2023-06-28T09:54:16.482Z,98589.81
2023-06-28T09:56:45.400Z,98582.50
2023-06-28T09:59:19.837Z,98587.06
2023-06-28T10:01:54.332Z,98566.28
2023-06-28T10:04:22.468Z,98573.81
2023-06-28T10:06:50.686Z,98588.34
2023-06-28T10:09:21.039Z,98585.72
2023-06-28T10:11:52.662Z,98569.44
2023-06-28T10:14:23.047Z,98578.13
2023-06-28T10:17:09.326Z,98577.97
2023-06-28T10:19:37.065Z,98568.31
2023-06-28T10:22:06.017Z,98575.38
2023-06-28T10:24:37.973Z,98569.38
2023-06-28T10:27:23.980Z,98552.13
2023-06-28T10:30:10.117Z,98589.78
2023-06-28T10:32:56.307Z,98567.31
2023-06-28T10:35:24.193Z,98588.78
2023-06-28T10:38:09.901Z,98585.16
2023-06-28T10:40:37.199Z,98560.25
2023-06-28T10:43:04.594Z,98568.38
2023-06-28T10:45:39.078Z,98574.69
2023-06-28T10:48:27.444Z,98580.81
2023-06-28T10:50:59.571Z,98572.94
2023-06-28T10:53:28.218Z,98575.28
2023-06-28T10:56:14.505Z,98566.56
2023-06-28T10:58:46.089Z,98549.03
2023-06-28T11:01:31.506Z,98570.53
2023-06-28T11:04:25.084Z,98546.59
2023-06-28T11:07:22.908Z,98580.06
2023-06-28T11:10:12.877Z,98577.16
2023-06-28T11:13:01.213Z,98570.00
2023-06-28T11:15:29.102Z,98584.41
2023-06-28T11:18:07.959Z,98562.00
2023-06-28T11:20:49.523Z,98577.91
2023-06-28T11:23:42.082Z,98574.72
2023-06-28T11:26:32.316Z,98553.69
2023-06-28T11:28:59.404Z,98571.75
2023-06-28T11:31:38.788Z,98572.75
2023-06-28T11:34:05.942Z,98555.41
2023-06-28T11:36:33.073Z,98552.94
2023-06-28T11:39:00.107Z,98560.25
2023-06-28T11:41:27.322Z,98555.34
2023-06-28T11:44:03.877Z,98554.09
2023-06-28T11:46:34.081Z,98554.25
2023-06-28T11:49:01.985Z,98562.19
2023-06-28T11:51:29.525Z,98538.00
2023-06-28T11:53:57.091Z,98554.50
2023-06-28T11:56:44.298Z,98547.63
2023-06-28T11:59:19.882Z,98573.44
2023-06-28T12:01:48.208Z,98547.97
2023-06-28T12:04:22.855Z,98524.25
2023-06-28T12:06:50.912Z,98563.47
2023-06-28T12:09:18.679Z,98530.16
2023-06-28T12:12:05.326Z,98565.69
2023-06-28T12:14:50.679Z,98545.91
2023-06-28T12:17:17.720Z,98565.34
2023-06-28T12:19:45.146Z,98565.69
2023-06-28T12:22:38.828Z,98548.84
2023-06-28T12:25:06.634Z,98548.78
2023-06-28T12:27:33.608Z,98557.97
2023-06-28T12:30:26.554Z,98541.13
2023-06-28T12:32:57.809Z,98538.22
2023-06-28T12:35:26.601Z,98563.66
2023-06-28T12:37:58.038Z,98530.44
2023-06-28T12:40:46.424Z,98538.75
2023-06-28T12:43:20.582Z,98508.25
2023-06-28T12:45:53.275Z,98552.22
2023-06-28T12:48:21.163Z,98551.16
2023-06-28T12:50:53.065Z,98515.91
2023-06-28T12:53:20.217Z,98540.94
2023-06-28T12:55:47.099Z,98526.88
2023-06-28T12:58:38.657Z,98554.69
2023-06-28T13:01:32.482Z,98546.28
2023-06-28T13:03:59.616Z,98541.13
2023-06-28T13:06:26.687Z,98528.13
2023-06-28T13:08:53.750Z,98525.53
2023-06-28T13:11:39.156Z,98552.91
2023-06-28T13:14:06.144Z,98534.31
2023-06-28T13:16:33.068Z,98550.34
2023-06-28T13:19:00.122Z,98537.75
2023-06-28T13:21:27.283Z,98497.00
2023-06-28T13:23:54.406Z,98502.28
2023-06-28T13:26:21.377Z,98524.53
2023-06-28T13:28:48.375Z,98524.38
2023-06-28T13:31:15.316Z,98511.69
2023-06-28T13:33:42.367Z,98531.25
2023-06-28T13:36:11.030Z,98520.72
2023-06-28T13:38:39.164Z,98517.81
2023-06-28T13:41:06.161Z,98507.31
2023-06-28T13:43:33.201Z,98500.00
2023-06-28T13:46:00.104Z,98515.13
2023-06-28T13:48:27.095Z,98514.16
2023-06-28T13:50:53.980Z,98492.59
2023-06-28T13:53:21.212Z,98508.47
2023-06-28T13:55:48.136Z,98504.09
2023-06-28T13:58:15.192Z,98475.28
2023-06-28T14:00:42.375Z,98519.03
2023-06-28T14:03:27.963Z,98494.88
2023-06-28T14:05:54.990Z,98497.03
2023-06-28T14:08:40.457Z,98476.47
2023-06-28T14:11:07.541Z,98503.13
2023-06-28T14:13:34.622Z,98506.84
2023-06-28T14:16:01.713Z,98522.69
2023-06-28T14:18:47.009Z,98514.59
2023-06-28T14:21:13.983Z,98521.47
2023-06-28T14:23:41.100Z,98515.38
2023-06-28T14:26:26.452Z,98528.06
2023-06-28T14:28:54.301Z,98511.00
2023-06-28T14:31:22.424Z,98523.66
2023-06-28T14:33:49.535Z,98505.31
2023-06-28T14:36:16.515Z,98495.31
2023-06-28T14:38:43.517Z,98522.16
2023-06-28T14:41:10.498Z,98532.16
2023-06-28T14:43:37.526Z,98497.22
2023-06-28T14:46:04.537Z,98515.56
2023-06-28T14:48:31.578Z,98514.84
2023-06-28T14:50:58.448Z,98506.78
2023-06-28T14:53:25.640Z,98522.22
2023-06-28T14:55:52.661Z,98517.31
2023-06-28T14:58:19.784Z,98505.09
2023-06-28T15:00:46.906Z,98523.19
2023-06-28T15:03:14.026Z,98514.41
2023-06-28T15:05:42.409Z,98518.78
2023-06-28T15:08:09.610Z,98506.31
2023-06-28T15:10:36.532Z,98491.22
2023-06-28T15:13:03.514Z,98516.09
2023-06-28T15:15:49.284Z,98523.69
2023-06-28T15:18:34.728Z,98536.88
2023-06-28T15:21:01.786Z,98525.41
2023-06-28T15:23:28.732Z,98550.03
2023-06-28T15:25:55.915Z,98519.50
2023-06-28T15:28:23.048Z,98526.34
2023-06-28T15:30:50.219Z,98525.63
2023-06-28T15:33:17.192Z,98511.22
2023-06-28T15:35:45.084Z,98519.72
2023-06-28T15:38:12.266Z,98508.72
2023-06-28T15:40:39.231Z,98532.19
2023-06-28T15:43:06.257Z,98516.09
2023-06-28T15:45:33.358Z,98507.50
2023-06-28T15:48:00.422Z,98522.19
2023-06-28T15:50:27.587Z,98525.81
2023-06-28T15:52:54.498Z,98547.56
2023-06-28T15:55:44.328Z,98507.28
2023-06-28T15:58:11.375Z,98538.06
2023-06-28T16:00:38.258Z,98548.50
2023-06-28T16:03:05.353Z,98527.25
2023-06-28T16:05:32.319Z,98529.44
2023-06-28T16:07:59.283Z,98548.63
2023-06-28T16:10:26.389Z,98525.94
2023-06-28T16:12:53.506Z,98541.53
2023-06-28T16:15:20.424Z,98539.59
2023-06-28T16:17:47.546Z,98504.19
2023-06-28T16:20:14.558Z,98525.91
2023-06-28T16:23:00.122Z,98541.47
2023-06-28T16:25:27.127Z,98548.03
2023-06-28T16:28:13.018Z,98560.13
2023-06-28T16:30:41.668Z,98538.84
2023-06-28T16:33:09.221Z,98528.84
2023-06-28T16:35:36.707Z,98507.34
2023-06-28T16:38:03.715Z,98538.09
2023-06-28T16:40:50.890Z,98532.66
2023-06-28T16:43:18.268Z,98536.97
2023-06-28T16:45:45.200Z,98549.75
2023-06-28T16:48:12.451Z,98516.06
2023-06-28T16:50:39.501Z,98544.09
2023-06-28T16:53:06.588Z,98529.03
2023-06-28T16:55:33.624Z,98515.28
2023-06-28T16:58:00.787Z,98536.19
2023-06-28T17:00:27.870Z,98520.13
2023-06-28T17:03:13.578Z,98528.69
2023-06-28T17:05:40.776Z,98537.81
2023-06-28T17:08:07.704Z,98530.59
2023-06-28T17:10:34.702Z,98518.31
2023-06-28T17:13:01.735Z,98526.09
2023-06-28T17:15:28.941Z,98517.97
2023-06-28T17:17:56.058Z,98533.72
2023-06-28T17:20:42.057Z,98528.09
2023-06-28T17:23:27.931Z,98521.16
2023-06-28T17:25:55.000Z,98497.78
2023-06-28T17:28:40.516Z,98523.84
2023-06-28T17:31:09.288Z,98543.19
2023-06-28T17:33:36.194Z,98472.84
2023-06-28T17:36:03.387Z,98515.63
2023-06-28T17:38:30.812Z,98527.59
2023-06-28T17:40:57.902Z,98510.44
2023-06-28T17:43:24.901Z,98512.91
2023-06-28T17:46:11.211Z,98508.28
2023-06-28T17:48:38.273Z,98500.31
2023-06-28T17:51:05.244Z,98520.38
2023-06-28T17:53:50.675Z,98507.94
2023-06-28T17:56:17.865Z,98518.75
2023-06-28T17:58:44.914Z,98520.78
2023-06-28T18:01:12.139Z,98508.09
2023-06-28T18:03:39.746Z,98534.06
2023-06-28T18:06:11.124Z,98538.94
2023-06-28T18:08:38.699Z,98538.19
2023-06-28T18:11:05.646Z,98523.94
2023-06-28T18:13:33.598Z,98538.19
2023-06-28T18:16:00.730Z,98515.63
2023-06-28T18:18:27.760Z,98528.69
2023-06-28T18:20:54.725Z,98526.44
2023-06-28T18:23:40.377Z,98526.28
2023-06-28T18:26:07.307Z,98516.94
2023-06-28T18:28:36.538Z,98508.91
2023-06-28T18:31:04.284Z,98516.59
2023-06-28T18:33:32.609Z,98528.03
2023-06-28T18:36:01.599Z,98520.53
2023-06-28T18:38:28.528Z,98506.38
2023-06-28T18:40:55.956Z,98550.09
2023-06-28T18:43:22.889Z,98496.63
2023-06-28T18:45:50.903Z,98507.66
2023-06-28T18:48:18.301Z,98539.47
2023-06-28T18:50:57.882Z,98538.75
2023-06-28T18:53:25.947Z,98504.38
2023-06-28T18:55:53.035Z,98503.16
2023-06-28T18:58:38.369Z,98509.16
2023-06-28T19:01:05.450Z,98526.63
2023-06-28T19:03:32.557Z,98515.00
2023-06-28T19:06:18.186Z,98496.84
2023-06-28T19:08:45.302Z,98502.25
2023-06-28T19:11:12.331Z,98484.00
2023-06-28T19:13:39.402Z,98486.34
2023-06-28T19:16:06.706Z,98493.69
2023-06-28T19:18:36.020Z,98493.09
2023-06-28T19:21:03.501Z,98498.91
2023-06-28T19:23:30.447Z,98491.13
2023-06-28T19:25:57.466Z,98507.41
2023-06-28T19:28:24.763Z,98494.34
2023-06-28T19:30:51.870Z,98517.19
2023-06-28T19:33:18.832Z,98533.22
2023-06-28T19:35:46.586Z,98500.91
2023-06-28T19:38:13.659Z,98527.25
2023-06-28T19:40:40.859Z,98508.38
2023-06-28T19:43:45.357Z,98524.19
2023-06-28T19:46:12.615Z,98528.34
2023-06-28T19:48:59.633Z,98530.00
2023-06-28T19:51:26.656Z,98531.47
2023-06-28T19:53:53.733Z,98523.84
2023-06-28T19:56:20.921Z,98513.34
2023-06-28T19:59:06.376Z,98502.00
2023-06-28T20:01:52.406Z,98523.81
2023-06-28T20:04:38.436Z,98508.38
2023-06-28T20:07:05.947Z,98519.44
2023-06-28T20:09:33.030Z,98516.44
2023-06-28T20:12:00.040Z,98513.94
2023-06-28T20:14:27.145Z,98514.50
2023-06-28T20:16:54.182Z,98520.22
2023-06-28T20:19:21.622Z,98519.22
2023-06-28T20:22:07.472Z,98509.34
2023-06-28T20:24:52.787Z,98475.25
2023-06-28T20:27:19.843Z,98465.75
2023-06-28T20:29:46.789Z,98507.53
2023-06-28T20:32:13.947Z,98499.31
2023-06-28T20:34:41.261Z,98482.88
2023-06-28T20:37:26.843Z,98502.88
2023-06-28T20:39:54.027Z,98503.72
2023-06-28T20:42:21.128Z,98487.06
2023-06-28T20:44:48.533Z,98486.16
2023-06-28T20:47:34.255Z,98495.13
2023-06-28T20:50:01.245Z,98471.34
2023-06-28T20:52:46.906Z,98492.78
2023-06-28T20:55:14.020Z,98489.22
2023-06-28T20:57:40.904Z,98492.97
2023-06-28T21:00:26.574Z,98498.25
2023-06-28T21:03:16.008Z,98496.91
2023-06-28T21:05:43.761Z,98496.19
2023-06-28T21:08:29.468Z,98479.47
2023-06-28T21:10:56.840Z,98487.13
2023-06-28T21:13:23.848Z,98489.56
2023-06-28T21:15:50.826Z,98519.41
2023-06-28T21:18:17.859Z,98491.56
2023-06-28T21:20:44.858Z,98471.59
2023-06-28T21:23:30.473Z,98493.84
2023-06-28T21:25:57.896Z,98492.09
2023-06-28T21:28:24.794Z,98467.75
2023-06-28T21:30:51.824Z,98468.66
2023-06-28T21:33:18.703Z,98485.00
2023-06-28T21:35:45.982Z,98482.09
2023-06-28T21:38:13.096Z,98482.81
2023-06-28T21:40:40.114Z,98495.69
2023-06-28T21:43:25.608Z,98482.56
2023-06-28T21:45:52.642Z,98491.66
2023-06-28T21:48:19.549Z,98479.22
2023-06-28T21:50:49.696Z,98492.50
2023-06-28T21:53:16.695Z,98487.16
2023-06-28T21:55:43.874Z,98503.91
2023-06-28T21:58:11.156Z,98480.03
2023-06-28T22:00:38.261Z,98484.47
2023-06-28T22:03:05.356Z,98485.31
2023-06-28T22:05:50.938Z,98466.63
2023-06-28T22:08:18.398Z,98477.78
2023-06-28T22:10:45.341Z,98493.50
2023-06-28T22:13:13.082Z,98477.78
2023-06-28T22:15:40.534Z,98488.22
2023-06-28T22:18:08.453Z,98495.22
2023-06-28T22:20:35.473Z,98473.06
2023-06-28T22:23:02.594Z,98480.41
2023-06-28T22:25:29.556Z,98471.13
2023-06-28T22:28:14.943Z,98470.69
2023-06-28T22:31:00.737Z,98469.97
2023-06-28T22:33:27.904Z,98479.00
2023-06-28T22:35:54.962Z,98441.25
2023-06-28T22:38:22.060Z,98486.53
2023-06-28T22:41:07.926Z,98471.16
2023-06-28T22:43:35.062Z,98487.69
2023-06-28T22:46:02.119Z,98482.81
2023-06-28T22:48:47.590Z,98472.03
2023-06-28T22:51:14.637Z,98469.03
2023-06-28T22:53:59.946Z,98477.91
2023-06-28T22:56:45.751Z,98497.41
2023-06-28T22:59:12.819Z,98501.16
2023-06-28T23:01:39.764Z,98514.44
2023-06-28T23:04:06.879Z,98502.88
2023-06-28T23:06:33.955Z,98528.97
2023-06-28T23:09:19.285Z,98508.06
2023-06-28T23:11:46.489Z,98495.84
2023-06-28T23:14:13.462Z,98516.91
2023-06-28T23:16:40.540Z,98477.72
2023-06-28T23:19:07.496Z,98495.22
2023-06-28T23:21:35.286Z,98496.69
2023-06-28T23:24:03.637Z,98508.28
2023-06-28T23:26:31.592Z,98493.97
2023-06-28T23:28:59.118Z,98486.31
2023-06-28T23:32:03.445Z,98499.84
2023-06-28T23:34:30.438Z,98473.78
2023-06-28T23:36:57.450Z,98479.69
2023-06-28T23:39:24.579Z,98481.91
2023-06-28T23:41:51.454Z,98501.84
2023-06-28T23:44:18.386Z,98470.09
2023-06-28T23:46:45.479Z,98455.47
2023-06-28T23:49:14.182Z,98457.13
2023-06-28T23:51:41.937Z,98436.09
2023-06-28T23:54:09.352Z,98460.84
2023-06-28T23:56:36.580Z,98469.94
2023-06-28T23:59:22.003Z,98495.47
